createdAt,value
2018-05-18T00:02:00.006Z,26.53
2018-05-18T00:04:27.541Z,28.90
2018-05-18T00:06:55.037Z,24.60
2018-05-18T00:09:22.568Z,28.20
2018-05-18T00:11:50.088Z,25.27
2018-05-18T00:14:18.418Z,26.50
2018-05-18T00:16:45.934Z,27.17
2018-05-18T00:19:13.472Z,25.70
2018-05-18T00:21:41.066Z,29.77
2018-05-18T00:24:08.598Z,27.20
2018-05-18T00:26:36.895Z,28.10
2018-05-18T00:29:05.183Z,29.40
2018-05-18T00:31:32.700Z,29.50
2018-05-18T00:34:00.260Z,23.90
2018-05-18T00:36:27.795Z,26.37
2018-05-18T00:38:55.343Z,25.87
2018-05-18T00:41:22.877Z,32.87
2018-05-18T00:43:50.398Z,33.10
2018-05-18T00:46:17.916Z,28.30
2018-05-18T00:48:45.460Z,26.00
2018-05-18T00:51:13.008Z,23.60
2018-05-18T00:53:40.560Z,23.57
2018-05-18T00:56:08.873Z,25.77
2018-05-18T00:58:36.406Z,25.03
2018-05-18T01:01:03.924Z,25.83
2018-05-18T01:03:31.463Z,27.80
2018-05-18T01:05:58.989Z,30.70
2018-05-18T01:08:26.506Z,27.37
2018-05-18T01:10:54.021Z,25.73
2018-05-18T01:13:21.594Z,25.33
2018-05-18T01:15:49.206Z,27.30
2018-05-18T01:18:16.678Z,27.10
2018-05-18T01:20:44.238Z,23.83
2018-05-18T01:23:12.528Z,26.77
2018-05-18T01:25:40.038Z,22.63
2018-05-18T01:28:07.553Z,26.87
2018-05-18T01:30:35.129Z,28.33
2018-05-18T01:33:02.679Z,22.97
2018-05-18T01:35:30.240Z,24.63
2018-05-18T01:37:57.788Z,25.47
2018-05-18T01:40:25.339Z,25.77
2018-05-18T01:42:52.864Z,24.73
2018-05-18T01:45:20.393Z,25.30
2018-05-18T01:47:47.909Z,24.80
2018-05-18T01:50:15.455Z,23.13
2018-05-18T01:52:43.047Z,26.90
2018-05-18T01:55:10.597Z,22.90
2018-05-18T01:57:38.116Z,24.20
2018-05-18T02:00:05.674Z,31.13
2018-05-18T02:02:33.996Z,25.50
2018-05-18T02:05:01.511Z,25.00
2018-05-18T02:07:29.040Z,26.83
2018-05-18T02:09:56.536Z,27.60
2018-05-18T02:12:24.081Z,22.40
2018-05-18T02:14:51.604Z,23.90
2018-05-18T02:17:19.149Z,22.17
2018-05-18T02:19:46.653Z,24.43
2018-05-18T02:22:14.210Z,26.40
2018-05-18T02:24:41.708Z,25.43
2018-05-18T02:27:09.248Z,24.67
2018-05-18T02:29:36.797Z,22.57
2018-05-18T02:32:04.339Z,28.77
2018-05-18T02:34:31.859Z,24.30
2018-05-18T02:36:59.405Z,23.90
2018-05-18T02:39:27.686Z,25.77
2018-05-18T02:41:55.213Z,23.53
2018-05-18T02:44:22.767Z,30.13
2018-05-18T02:46:50.317Z,25.77
2018-05-18T02:49:17.844Z,27.97
2018-05-18T02:51:45.390Z,28.97
2018-05-18T02:54:13.658Z,25.43
2018-05-18T02:56:41.947Z,27.67
2018-05-18T02:59:09.449Z,24.93
2018-05-18T03:01:36.964Z,26.07
2018-05-18T03:04:04.533Z,24.67
2018-05-18T03:06:32.072Z,24.10
2018-05-18T03:08:59.627Z,29.40
2018-05-18T03:11:27.174Z,31.70
2018-05-18T03:13:55.419Z,29.53
2018-05-18T03:16:22.936Z,29.97
2018-05-18T03:18:50.465Z,27.60
2018-05-18T03:21:18.753Z,27.47
2018-05-18T03:23:46.311Z,29.10
2018-05-18T03:26:13.836Z,26.00
2018-05-18T03:28:41.409Z,27.43
2018-05-18T03:31:08.966Z,28.53
2018-05-18T03:33:36.520Z,26.13
2018-05-18T03:36:04.035Z,29.20
2018-05-18T03:38:31.567Z,28.30
2018-05-18T03:40:59.852Z,28.63
2018-05-18T03:43:27.403Z,29.53
2018-05-18T03:45:54.952Z,32.80
2018-05-18T03:48:23.240Z,34.53
2018-05-18T03:50:51.537Z,27.37
2018-05-18T03:53:19.059Z,28.40
2018-05-18T03:55:46.619Z,31.23
2018-05-18T03:58:14.168Z,32.80
2018-05-18T04:00:41.698Z,27.60
2018-05-18T04:03:21.172Z,28.67
2018-05-18T04:06:00.552Z,27.23
2018-05-18T04:08:51.779Z,24.67
2018-05-18T04:11:19.337Z,23.50
2018-05-18T04:13:46.877Z,27.60
2018-05-18T04:16:14.402Z,27.13
2018-05-18T04:18:41.896Z,28.43
2018-05-18T04:21:09.432Z,25.53
2018-05-18T04:23:37.730Z,22.70
2018-05-18T04:26:05.311Z,22.43
2018-05-18T04:28:32.837Z,23.70
2018-05-18T04:31:01.208Z,24.80
2018-05-18T04:33:29.511Z,23.80
2018-05-18T04:35:57.059Z,25.03
2018-05-18T04:38:25.396Z,23.93
2018-05-18T04:40:52.935Z,28.47
2018-05-18T04:43:20.578Z,26.87
2018-05-18T04:45:47.964Z,27.07
2018-05-18T04:48:15.654Z,29.80
2018-05-18T04:50:45.827Z,25.73
2018-05-18T04:53:13.410Z,26.40
2018-05-18T04:55:40.888Z,25.17
2018-05-18T04:58:08.406Z,26.77
2018-05-18T05:00:45.899Z,31.63
2018-05-18T05:03:13.361Z,26.53
2018-05-18T05:05:40.927Z,31.20
2018-05-18T05:08:14.392Z,24.90
2018-05-18T05:10:42.416Z,30.80
2018-05-18T05:13:10.018Z,30.33
2018-05-18T05:15:38.344Z,30.07
2018-05-18T05:18:05.875Z,26.97
2018-05-18T05:20:33.613Z,27.67
2018-05-18T05:23:01.229Z,25.97
2018-05-18T05:25:28.892Z,30.17
2018-05-18T05:27:56.400Z,27.70
2018-05-18T05:30:24.933Z,25.10
2018-05-18T05:32:52.425Z,27.80
2018-05-18T05:35:20.750Z,27.00
2018-05-18T05:37:54.586Z,25.13
2018-05-18T05:40:22.186Z,28.13
2018-05-18T05:42:49.631Z,21.13
2018-05-18T05:45:17.872Z,21.57
2018-05-18T05:47:45.333Z,23.30
2018-05-18T05:50:14.027Z,24.50
2018-05-18T05:52:57.550Z,23.50
2018-05-18T05:55:25.090Z,21.33
2018-05-18T05:57:52.714Z,21.73
2018-05-18T06:00:20.184Z,20.37
2018-05-18T06:02:47.672Z,27.23
2018-05-18T06:05:15.243Z,28.67
2018-05-18T06:07:42.730Z,21.57
2018-05-18T06:10:11.027Z,21.17
2018-05-18T06:12:38.573Z,25.83
2018-05-18T06:15:06.924Z,24.97
2018-05-18T06:17:34.454Z,24.73
2018-05-18T06:20:02.887Z,24.83
2018-05-18T06:22:31.207Z,27.33
2018-05-18T06:24:58.754Z,25.80
2018-05-18T06:27:26.309Z,24.53
2018-05-18T06:29:54.045Z,24.97
2018-05-18T06:32:22.365Z,29.30
2018-05-18T06:34:49.957Z,28.43
2018-05-18T06:37:17.417Z,29.33
2018-05-18T06:39:44.999Z,25.10
2018-05-18T06:42:13.305Z,31.37
2018-05-18T06:44:40.837Z,37.40
2018-05-18T06:47:08.400Z,26.90
2018-05-18T06:49:36.698Z,34.07
2018-05-18T06:52:04.269Z,28.40
2018-05-18T06:54:31.799Z,29.03
2018-05-18T06:56:59.352Z,29.60
2018-05-18T06:59:27.673Z,30.80
2018-05-18T07:01:55.216Z,31.93
2018-05-18T07:04:22.753Z,29.67
2018-05-18T07:06:51.071Z,32.80
2018-05-18T07:09:18.646Z,29.00
2018-05-18T07:11:46.241Z,32.90
2018-05-18T07:14:16.043Z,38.37
2018-05-18T07:16:43.606Z,29.73
2018-05-18T07:19:11.144Z,33.60
2018-05-18T07:21:38.672Z,37.30
2018-05-18T07:24:06.196Z,30.33
2018-05-18T07:26:34.519Z,31.17
2018-05-18T07:29:02.075Z,29.97
2018-05-18T07:31:29.601Z,28.90
2018-05-18T07:33:57.983Z,27.63
2018-05-18T07:36:25.537Z,32.80
2018-05-18T07:38:53.846Z,29.03
2018-05-18T07:41:21.400Z,29.13
2018-05-18T07:43:49.018Z,33.37
2018-05-18T07:46:16.633Z,27.93
2018-05-18T07:48:44.187Z,24.43
2018-05-18T07:51:21.655Z,27.60
2018-05-18T07:53:49.978Z,26.63
2018-05-18T07:56:17.603Z,29.90
2018-05-18T07:58:45.191Z,32.43
2018-05-18T08:01:12.759Z,29.20
2018-05-18T08:03:40.285Z,31.87
2018-05-18T08:06:07.829Z,35.63
2018-05-18T08:08:36.215Z,29.17
2018-05-18T08:11:03.885Z,30.47
2018-05-18T08:13:31.414Z,29.60
2018-05-18T08:15:59.712Z,30.03
2018-05-18T08:18:27.249Z,34.03
2018-05-18T08:20:54.789Z,30.83
2018-05-18T08:23:22.308Z,30.50
2018-05-18T08:25:50.553Z,31.87
2018-05-18T08:28:20.099Z,31.73
2018-05-18T08:30:59.629Z,30.50
2018-05-18T08:33:27.269Z,28.90
2018-05-18T08:35:55.592Z,34.20
2018-05-18T08:38:23.159Z,32.17
2018-05-18T08:40:50.748Z,31.10
2018-05-18T08:43:18.490Z,29.57
2018-05-18T08:45:47.269Z,27.47
2018-05-18T08:48:14.847Z,31.20
2018-05-18T08:50:42.482Z,32.10
2018-05-18T08:53:10.690Z,35.03
2018-05-18T08:55:38.224Z,28.03
2018-05-18T08:58:05.840Z,35.17
2018-05-18T09:00:47.411Z,29.83
2018-05-18T09:03:14.981Z,33.60
2018-05-18T09:05:43.393Z,32.73
2018-05-18T09:08:10.971Z,30.67
2018-05-18T09:10:38.555Z,31.50
2018-05-18T09:13:06.105Z,26.87
2018-05-18T09:15:34.014Z,35.17
2018-05-18T09:18:02.340Z,29.37
2018-05-18T09:20:29.920Z,28.77
2018-05-18T09:22:59.346Z,33.90
2018-05-18T09:25:27.722Z,30.57
2018-05-18T09:27:56.133Z,31.33
2018-05-18T09:30:23.702Z,30.20
2018-05-18T09:32:51.339Z,32.37
2018-05-18T09:35:18.943Z,32.23
2018-05-18T09:37:46.553Z,30.70
2018-05-18T09:40:15.461Z,28.77
2018-05-18T09:42:42.999Z,28.63
2018-05-18T09:45:11.436Z,33.43
2018-05-18T09:47:40.090Z,33.80
2018-05-18T09:50:08.308Z,30.73
2018-05-18T09:52:36.664Z,30.83
2018-05-18T09:55:04.436Z,28.13
2018-05-18T09:57:32.620Z,28.07
2018-05-18T10:00:00.213Z,29.07
2018-05-18T10:02:28.519Z,30.00
2018-05-18T10:04:56.048Z,29.10
2018-05-18T10:07:23.567Z,28.70
2018-05-18T10:09:51.119Z,26.03
2018-05-18T10:12:18.717Z,30.63
2018-05-18T10:14:46.307Z,30.97
2018-05-18T10:17:13.888Z,28.80
2018-05-18T10:19:41.469Z,27.97
2018-05-18T10:22:09.020Z,27.67
2018-05-18T10:24:36.581Z,30.33
2018-05-18T10:27:04.167Z,28.27
2018-05-18T10:29:31.719Z,25.37
2018-05-18T10:32:00.911Z,28.90
2018-05-18T10:34:30.085Z,33.80
2018-05-18T10:36:57.631Z,25.10
2018-05-18T10:39:25.143Z,33.87
2018-05-18T10:41:52.742Z,26.23
2018-05-18T10:44:20.270Z,28.83
2018-05-18T10:46:47.826Z,28.80
2018-05-18T10:49:15.401Z,25.97
2018-05-18T10:54:37.189Z,28.33
2018-05-18T10:57:04.701Z,24.27
2018-05-18T10:59:32.245Z,30.13
2018-05-18T11:01:59.752Z,25.27
2018-05-18T11:04:27.292Z,30.47
2018-05-18T11:06:55.714Z,27.47
2018-05-18T11:09:23.192Z,27.30
2018-05-18T11:11:50.961Z,28.07
2018-05-18T11:14:19.623Z,22.97
2018-05-18T11:16:47.054Z,26.43
2018-05-18T11:19:14.596Z,26.17
2018-05-18T11:21:42.976Z,23.97
2018-05-18T11:24:10.497Z,23.73
2018-05-18T11:26:37.969Z,26.90
2018-05-18T11:29:05.513Z,23.10
2018-05-18T11:31:34.105Z,26.17
2018-05-18T11:34:01.596Z,28.23
2018-05-18T11:36:29.242Z,24.13
2018-05-18T11:38:56.733Z,26.63
2018-05-18T11:41:24.233Z,28.20
2018-05-18T11:43:51.703Z,23.83
2018-05-18T11:46:19.200Z,24.93
2018-05-18T11:48:46.762Z,31.97
2018-05-18T11:51:14.330Z,27.53
2018-05-18T11:53:41.845Z,26.00
2018-05-18T11:56:10.188Z,27.57
2018-05-18T11:58:37.708Z,25.90
2018-05-18T12:01:05.345Z,22.70
2018-05-18T12:03:32.953Z,32.00
2018-05-18T12:06:00.437Z,25.60
2018-05-18T12:08:27.990Z,24.63
2018-05-18T12:10:55.543Z,21.30
2018-05-18T12:13:22.997Z,28.27
2018-05-18T12:15:50.565Z,23.07
2018-05-18T12:18:18.088Z,21.80
2018-05-18T12:20:45.546Z,19.30
2018-05-18T12:25:55.434Z,22.37
2018-05-18T12:28:23.051Z,23.30
2018-05-18T12:30:50.533Z,22.50
2018-05-18T12:33:18.062Z,24.17
2018-05-18T12:35:45.522Z,21.20
2018-05-18T12:38:14.278Z,21.23
2018-05-18T12:40:50.677Z,23.73
2018-05-18T12:43:18.301Z,25.13
2018-05-18T12:45:48.161Z,21.97
2018-05-18T12:48:16.535Z,26.37
2018-05-18T12:50:45.717Z,24.23
2018-05-18T12:53:13.275Z,25.47
2018-05-18T12:55:40.795Z,22.43
2018-05-18T12:58:08.345Z,25.60
2018-05-18T13:00:35.900Z,25.33
2018-05-18T13:03:03.423Z,20.50
2018-05-18T13:05:30.910Z,23.43
2018-05-18T13:07:59.350Z,36.13
2018-05-18T13:10:26.917Z,20.50
2018-05-18T13:12:55.712Z,26.17
2018-05-18T13:15:24.033Z,23.93
2018-05-18T13:17:51.598Z,29.10
2018-05-18T13:20:19.136Z,24.93
2018-05-18T13:22:46.677Z,21.53
2018-05-18T13:25:14.216Z,23.53
2018-05-18T13:27:43.294Z,28.03
2018-05-18T13:30:11.799Z,26.40
2018-05-18T13:32:40.137Z,22.93
2018-05-18T13:35:07.652Z,23.23
2018-05-18T13:37:35.995Z,23.47
2018-05-18T13:40:04.278Z,23.03
2018-05-18T13:42:31.808Z,21.47
2018-05-18T13:44:59.406Z,23.03
2018-05-18T13:47:26.907Z,18.73
2018-05-18T13:49:54.494Z,18.67
2018-05-18T13:52:22.016Z,20.17
2018-05-18T13:54:49.522Z,18.90
2018-05-18T13:57:17.170Z,16.80
2018-05-18T13:59:44.639Z,18.97
2018-05-18T14:02:12.144Z,15.27
2018-05-18T14:04:40.410Z,20.03
2018-05-18T14:07:08.682Z,23.57
2018-05-18T14:09:36.778Z,23.30
2018-05-18T14:12:04.293Z,20.00
2018-05-18T14:14:31.811Z,16.93
2018-05-18T14:16:59.328Z,18.60
2018-05-18T14:19:26.878Z,18.97
2018-05-18T14:21:54.487Z,19.90
2018-05-18T14:24:22.222Z,19.90
2018-05-18T14:26:51.268Z,17.67
2018-05-18T14:29:18.823Z,21.27
2018-05-18T14:31:46.380Z,21.87
2018-05-18T14:34:14.017Z,18.10
2018-05-18T14:36:41.592Z,16.87
2018-05-18T14:39:09.159Z,20.60
2018-05-18T14:41:36.694Z,17.17
2018-05-18T14:44:04.259Z,17.30
2018-05-18T14:46:31.758Z,17.60
2018-05-18T14:49:13.630Z,15.60
2018-05-18T14:51:41.209Z,15.93
2018-05-18T14:54:08.881Z,15.53
2018-05-18T14:56:36.428Z,14.53
2018-05-18T14:59:04.013Z,13.00
2018-05-18T15:01:31.591Z,15.30
2018-05-18T15:03:59.905Z,18.50
2018-05-18T15:06:27.451Z,15.13
2018-05-18T15:08:55.010Z,13.63
2018-05-18T15:11:22.543Z,13.17
2018-05-18T15:13:50.916Z,12.67
2018-05-18T15:16:18.437Z,19.37
2018-05-18T15:18:46.026Z,12.37
2018-05-18T15:21:13.545Z,13.30
2018-05-18T15:23:41.060Z,12.73
2018-05-18T15:26:08.596Z,12.10
2018-05-18T15:28:36.119Z,16.97
2018-05-18T15:31:03.578Z,13.07
2018-05-18T15:33:31.029Z,18.70
2018-05-18T15:35:58.525Z,9.70
2018-05-18T15:38:26.003Z,12.87
2018-05-18T15:40:53.496Z,13.53
2018-05-18T15:43:21.017Z,13.53
2018-05-18T15:45:49.294Z,10.67
2018-05-18T15:48:16.980Z,15.87
2018-05-18T15:50:44.582Z,13.70
2018-05-18T15:53:12.945Z,11.27
2018-05-18T15:55:40.445Z,12.47
2018-05-18T15:58:07.947Z,12.13
2018-05-18T16:00:35.590Z,8.20
2018-05-18T16:03:03.965Z,12.87
2018-05-18T16:05:32.244Z,14.80
2018-05-18T16:08:00.552Z,12.97
2018-05-18T16:10:28.144Z,8.77
2018-05-18T16:12:55.676Z,13.30
2018-05-18T16:15:23.892Z,11.73
2018-05-18T16:17:51.446Z,10.07
2018-05-18T16:20:18.906Z,10.10
2018-05-18T16:22:46.397Z,12.67
2018-05-18T16:25:14.628Z,10.37
2018-05-18T16:27:42.685Z,11.77
2018-05-18T16:30:10.242Z,14.80
2018-05-18T16:32:37.745Z,10.40
2018-05-18T16:35:05.204Z,9.50
2018-05-18T16:37:32.749Z,20.10
2018-05-18T16:40:00.282Z,13.10
2018-05-18T16:42:28.514Z,12.30
2018-05-18T16:44:56.096Z,12.67
2018-05-18T16:47:23.606Z,9.30
2018-05-18T16:49:51.097Z,13.03
2018-05-18T16:52:19.170Z,14.57
2018-05-18T16:54:48.813Z,16.77
2018-05-18T16:57:16.324Z,10.83
2018-05-18T16:59:43.903Z,11.93
2018-05-18T17:02:11.392Z,11.30
2018-05-18T17:04:38.900Z,11.73
2018-05-18T17:07:06.343Z,10.47
2018-05-18T17:09:33.851Z,13.43
2018-05-18T17:12:10.617Z,13.03
2018-05-18T17:14:38.110Z,14.00
2018-05-18T17:17:06.353Z,20.03
2018-05-18T17:19:33.835Z,13.10
2018-05-18T17:22:01.318Z,15.40
2018-05-18T17:24:30.006Z,10.03
2018-05-18T17:26:57.506Z,14.60
2018-05-18T17:29:28.847Z,15.07
2018-05-18T17:31:57.177Z,12.87
2018-05-18T17:34:24.948Z,13.57
2018-05-18T17:50:38.274Z,11.90
2018-05-18T17:53:05.818Z,13.77
2018-05-18T17:55:33.327Z,9.70
2018-05-18T17:58:01.651Z,15.80
2018-05-18T18:00:29.124Z,9.73
2018-05-18T18:02:56.623Z,9.77
2018-05-18T18:05:24.901Z,9.87
2018-05-18T18:07:53.270Z,19.43
2018-05-18T18:10:21.425Z,12.30
2018-05-18T18:12:49.166Z,10.50
2018-05-18T18:15:27.560Z,14.67
2018-05-18T18:17:55.101Z,12.30
2018-05-18T18:20:22.605Z,15.07
2018-05-18T18:22:50.183Z,12.20
2018-05-18T18:25:17.771Z,11.30
2018-05-18T18:27:46.063Z,15.27
2018-05-18T18:30:13.611Z,13.67
2018-05-18T18:32:41.905Z,11.73
2018-05-18T18:35:09.439Z,12.63
2018-05-18T18:37:37.771Z,13.27
2018-05-18T18:40:05.357Z,10.57
2018-05-18T18:42:33.664Z,12.13
2018-05-18T18:45:01.219Z,14.03
2018-05-18T18:47:29.460Z,16.77
2018-05-18T18:49:56.965Z,14.47
2018-05-18T18:52:25.200Z,12.57
2018-05-18T18:54:53.763Z,13.37
2018-05-18T18:57:21.241Z,10.03
2018-05-18T18:59:48.712Z,16.63
2018-05-18T19:02:16.183Z,16.20
2018-05-18T19:04:46.503Z,11.47
2018-05-18T19:07:16.130Z,11.30
2018-05-18T19:09:43.832Z,12.60
2018-05-18T19:12:21.257Z,13.80
2018-05-18T19:14:49.957Z,15.80
2018-05-18T19:17:18.468Z,12.60
2018-05-18T19:19:46.135Z,10.33
2018-05-18T19:22:13.633Z,15.70
2018-05-18T19:24:41.120Z,10.53
2018-05-18T19:27:09.517Z,13.60
2018-05-18T19:29:38.000Z,14.43
2018-05-18T19:32:33.112Z,10.77
2018-05-18T19:35:00.636Z,12.97
2018-05-18T19:37:28.986Z,12.70
2018-05-18T19:43:01.813Z,10.10
2018-05-18T19:48:10.654Z,17.13
2018-05-18T19:50:38.598Z,11.23
2018-05-18T19:53:06.090Z,13.53
2018-05-18T19:55:40.242Z,11.93
2018-05-18T19:58:17.208Z,13.53
2018-05-18T20:00:44.683Z,15.80
2018-05-18T20:03:13.286Z,18.27
2018-05-18T20:09:24.951Z,17.57
2018-05-18T20:11:52.501Z,14.70
2018-05-18T20:14:59.114Z,9.73
2018-05-18T20:17:26.678Z,10.83
2018-05-18T20:19:54.184Z,11.17
2018-05-18T20:22:22.448Z,11.30
2018-05-18T20:25:15.873Z,8.90
2018-05-18T20:31:07.096Z,12.30
2018-05-18T20:33:35.490Z,18.10
2018-05-18T20:36:02.982Z,14.83
2018-05-18T20:38:30.485Z,14.33
2018-05-18T20:40:57.966Z,13.13
2018-05-18T20:43:25.492Z,11.73
2018-05-18T20:45:53.718Z,18.80
2018-05-18T20:48:21.999Z,11.13
2018-05-18T20:50:49.480Z,12.63
2018-05-18T20:53:17.196Z,12.23
2018-05-18T20:55:44.783Z,16.03
2018-05-18T20:58:12.243Z,12.57
2018-05-18T21:00:39.714Z,15.70
2018-05-18T21:03:07.179Z,14.13
2018-05-18T21:05:35.393Z,17.63
2018-05-18T21:08:02.877Z,11.30
2018-05-18T21:10:30.426Z,12.50
2018-05-18T21:12:57.796Z,9.63
2018-05-18T21:15:25.284Z,15.57
2018-05-18T21:17:52.737Z,11.93
2018-05-18T21:20:20.198Z,14.03
2018-05-18T21:22:47.666Z,14.17
2018-05-18T21:25:15.997Z,10.37
2018-05-18T21:27:43.451Z,17.43
2018-05-18T21:30:10.946Z,11.23
2018-05-18T21:32:38.386Z,15.80
2018-05-18T21:35:05.851Z,16.90
2018-05-18T21:37:33.299Z,16.87
2018-05-18T21:40:00.767Z,15.27
2018-05-18T21:42:28.247Z,18.30
2018-05-18T21:44:56.575Z,9.40
2018-05-18T21:47:24.144Z,11.93
2018-05-18T21:49:51.580Z,15.23
2018-05-18T21:52:19.336Z,11.10
2018-05-18T21:54:46.801Z,14.43
2018-05-18T21:57:14.271Z,11.53
2018-05-18T21:59:41.729Z,12.00
2018-05-18T22:02:09.181Z,13.13
2018-05-18T22:04:36.627Z,15.33
2018-05-18T22:07:04.076Z,18.50
2018-05-18T22:09:31.537Z,16.50
2018-05-18T22:11:59.004Z,16.37
2018-05-18T22:14:26.449Z,13.50
2018-05-18T22:16:53.916Z,16.30
2018-05-18T22:19:21.366Z,12.80
2018-05-18T22:21:48.831Z,20.40
2018-05-18T22:24:16.290Z,15.73
2018-05-18T22:26:43.734Z,15.37
2018-05-18T22:29:11.197Z,14.90
2018-05-18T22:31:38.675Z,14.70
2018-05-18T22:34:06.131Z,19.23
2018-05-18T22:36:33.601Z,16.90
2018-05-18T22:39:01.065Z,25.53
2018-05-18T22:41:28.523Z,28.67
2018-05-18T22:43:56.749Z,20.83
2018-05-18T22:46:24.211Z,22.07
2018-05-18T22:48:51.683Z,21.57
2018-05-18T22:51:19.140Z,26.63
2018-05-18T22:53:47.329Z,24.50
2018-05-18T22:56:14.789Z,28.00
2018-05-18T22:58:42.240Z,22.50
2018-05-18T23:01:09.773Z,24.17
2018-05-18T23:03:37.233Z,23.03
2018-05-18T23:06:04.704Z,30.70
2018-05-18T23:08:32.172Z,26.67
2018-05-18T23:10:59.637Z,23.73
2018-05-18T23:13:27.099Z,19.17
2018-05-18T23:15:54.547Z,27.00
2018-05-18T23:18:22.015Z,25.30
2018-05-18T23:20:49.465Z,27.60
2018-05-18T23:23:16.927Z,26.00
2018-05-18T23:25:44.399Z,33.80
2018-05-18T23:28:11.910Z,30.73
2018-05-18T23:30:39.359Z,31.17
2018-05-18T23:33:06.880Z,33.73
2018-05-18T23:35:34.319Z,30.57
2018-05-18T23:38:01.782Z,29.27
2018-05-18T23:40:29.226Z,29.53
2018-05-18T23:42:56.693Z,34.93
2018-05-18T23:45:24.144Z,33.30
2018-05-18T23:47:51.650Z,31.60
2018-05-18T23:50:19.872Z,33.97
2018-05-18T23:52:47.312Z,33.23
2018-05-18T23:55:14.771Z,32.80
2018-05-18T23:57:42.223Z,38.10
